createdAt,value
2022-11-20T00:01:16.290Z,25.90
2022-11-20T00:03:42.733Z,26.30
2022-11-20T00:06:12.586Z,27.77
2022-11-20T00:08:39.604Z,25.35
2022-11-20T00:11:16.031Z,26.20
2022-11-20T00:13:44.095Z,27.52
2022-11-20T00:16:12.075Z,27.13
2022-11-20T00:18:38.646Z,26.88
2022-11-20T00:21:07.792Z,26.25
2022-11-20T00:23:34.785Z,25.80
2022-11-20T00:26:05.885Z,25.83
2022-11-20T00:28:32.363Z,24.05
2022-11-20T00:31:07.595Z,24.55
2022-11-20T00:33:34.788Z,26.20
2022-11-20T00:36:03.123Z,25.27
2022-11-20T00:38:29.548Z,25.05
2022-11-20T00:40:58.572Z,26.48
2022-11-20T00:43:25.767Z,27.30
2022-11-20T00:45:56.776Z,26.13
2022-11-20T00:48:23.146Z,26.90
2022-11-20T00:50:49.530Z,27.52
2022-11-20T00:53:15.899Z,27.48
2022-11-20T00:55:42.251Z,25.38
2022-11-20T00:58:14.049Z,24.95
2022-11-20T01:00:40.740Z,26.38
2022-11-20T01:03:07.129Z,26.80
2022-11-20T01:05:35.950Z,25.58
2022-11-20T01:08:02.303Z,25.17
2022-11-20T01:10:28.672Z,25.30
2022-11-20T01:13:15.025Z,27.83
2022-11-20T01:15:41.464Z,28.83
2022-11-20T01:18:07.928Z,26.95
2022-11-20T01:20:37.596Z,26.98
2022-11-20T01:23:04.750Z,27.88
2022-11-20T01:25:31.570Z,27.20
2022-11-20T01:27:57.941Z,26.23
2022-11-20T01:30:24.315Z,27.48
2022-11-20T01:32:50.758Z,26.05
2022-11-20T01:35:17.383Z,26.30
2022-11-20T01:37:43.803Z,27.08
2022-11-20T01:40:10.807Z,26.05
2022-11-20T01:42:56.353Z,26.00
2022-11-20T01:45:57.489Z,26.52
2022-11-20T01:48:27.423Z,26.35
2022-11-20T01:50:54.739Z,25.52
2022-11-20T01:53:26.157Z,25.60
2022-11-20T01:55:55.757Z,26.80
2022-11-20T01:58:29.854Z,25.40
2022-11-20T02:00:56.824Z,26.05
2022-11-20T02:03:24.240Z,25.65
2022-11-20T02:05:56.487Z,26.85
2022-11-20T02:08:24.534Z,26.63
2022-11-20T02:10:50.941Z,25.63
2022-11-20T02:13:35.951Z,24.75
2022-11-20T02:16:04.060Z,26.83
2022-11-20T02:18:31.090Z,26.45
2022-11-20T02:21:08.713Z,26.23
2022-11-20T02:23:58.261Z,25.90
2022-11-20T02:26:27.396Z,27.73
2022-11-20T02:28:55.099Z,28.08
2022-11-20T02:31:21.471Z,26.83
2022-11-20T02:33:47.989Z,27.60
2022-11-20T02:36:17.000Z,29.15
2022-11-20T02:38:44.546Z,27.98
2022-11-20T02:41:10.913Z,27.40
2022-11-20T02:43:37.287Z,28.67
2022-11-20T02:46:03.644Z,29.42
2022-11-20T02:48:33.709Z,32.20
2022-11-20T02:51:00.786Z,30.23
2022-11-20T02:53:27.235Z,30.88
2022-11-20T02:55:53.637Z,30.95
2022-11-20T02:58:20.037Z,30.10
2022-11-20T03:00:46.591Z,31.13
2022-11-20T03:03:13.283Z,32.15
2022-11-20T03:05:39.662Z,30.40
2022-11-20T03:08:06.049Z,29.48
2022-11-20T03:10:32.526Z,29.65
2022-11-20T03:12:58.956Z,32.25
2022-11-20T03:15:25.969Z,31.02
2022-11-20T03:17:56.318Z,31.42
2022-11-20T03:20:23.530Z,30.80
2022-11-20T03:22:50.051Z,30.50
2022-11-20T03:25:16.442Z,30.60
2022-11-20T03:27:42.995Z,31.73
2022-11-20T03:30:10.179Z,30.25
2022-11-20T03:32:36.584Z,30.40
2022-11-20T03:35:02.952Z,30.63
2022-11-20T03:37:29.473Z,30.30
2022-11-20T03:39:55.827Z,31.20
2022-11-20T03:42:40.829Z,30.77
2022-11-20T03:45:07.679Z,33.03
2022-11-20T03:47:34.337Z,29.88
2022-11-20T03:50:00.718Z,31.63
2022-11-20T03:52:27.090Z,30.88
2022-11-20T03:54:53.468Z,30.17
2022-11-20T03:57:19.882Z,31.88
2022-11-20T03:59:46.283Z,32.15
2022-11-20T04:02:12.733Z,33.10
2022-11-20T04:04:39.153Z,30.75
2022-11-20T04:07:05.637Z,31.92
2022-11-20T04:09:32.095Z,31.48
2022-11-20T04:11:58.546Z,30.40
2022-11-20T04:14:25.244Z,29.85
2022-11-20T04:16:51.765Z,28.75
2022-11-20T04:19:18.458Z,30.33
2022-11-20T04:21:45.633Z,30.13
2022-11-20T04:24:12.418Z,28.88
2022-11-20T04:26:39.383Z,28.17
2022-11-20T04:29:05.816Z,25.55
2022-11-20T04:31:34.969Z,25.48
2022-11-20T04:34:03.516Z,25.13
2022-11-20T04:36:30.984Z,25.40
2022-11-20T04:38:59.559Z,25.48
2022-11-20T04:41:28.769Z,26.35
2022-11-20T04:44:00.328Z,25.38
2022-11-20T04:46:28.175Z,25.50
2022-11-20T04:48:54.901Z,25.60
2022-11-20T04:51:21.346Z,25.60
2022-11-20T04:53:47.943Z,26.60
2022-11-20T04:56:14.922Z,26.13
2022-11-20T04:58:41.879Z,26.35
2022-11-20T05:01:16.340Z,24.92
2022-11-20T05:03:44.160Z,24.27
2022-11-20T05:06:13.689Z,25.27
2022-11-20T05:08:40.477Z,25.42
2022-11-20T05:11:15.864Z,26.73
2022-11-20T05:13:42.875Z,25.75
2022-11-20T05:16:11.782Z,25.77
2022-11-20T05:18:38.757Z,25.33
2022-11-20T05:21:06.093Z,24.88
2022-11-20T05:23:33.918Z,25.35
2022-11-20T05:26:01.378Z,25.23
2022-11-20T05:28:29.704Z,23.90
2022-11-20T05:30:56.371Z,25.40
2022-11-20T05:33:23.121Z,26.45
2022-11-20T05:35:49.751Z,24.60
2022-11-20T05:38:16.800Z,24.23
2022-11-20T05:40:43.511Z,25.42
2022-11-20T05:43:09.903Z,27.00
2022-11-20T05:45:36.512Z,28.40
2022-11-20T05:48:03.107Z,28.08
2022-11-20T05:50:29.550Z,27.15
2022-11-20T05:52:56.012Z,29.02
2022-11-20T05:55:22.421Z,26.23
2022-11-20T05:57:48.784Z,25.77
2022-11-20T06:00:15.778Z,27.58
2022-11-20T06:02:42.371Z,26.92
2022-11-20T06:05:09.051Z,26.02
2022-11-20T06:07:35.534Z,26.83
2022-11-20T06:10:01.990Z,25.65
2022-11-20T06:12:28.348Z,26.38
2022-11-20T06:14:54.776Z,25.50
2022-11-20T06:17:21.153Z,27.10
2022-11-20T06:19:47.501Z,28.50
2022-11-20T06:22:13.918Z,25.77
2022-11-20T06:24:40.286Z,27.13
2022-11-20T06:27:06.687Z,27.10
2022-11-20T06:29:34.178Z,26.55
2022-11-20T06:32:00.865Z,27.80
2022-11-20T06:34:27.257Z,27.27
2022-11-20T06:36:53.668Z,28.13
2022-11-20T06:39:20.481Z,27.52
2022-11-20T06:41:47.183Z,27.92
2022-11-20T06:44:13.599Z,27.80
2022-11-20T06:46:40.001Z,29.13
2022-11-20T06:49:06.854Z,27.80
2022-11-20T06:51:33.395Z,27.58
2022-11-20T06:54:01.821Z,26.67
2022-11-20T06:56:28.842Z,27.60
2022-11-20T06:58:55.251Z,29.05
2022-11-20T07:01:21.803Z,28.48
2022-11-20T07:03:54.477Z,27.65
2022-11-20T07:06:21.120Z,27.35
2022-11-20T07:08:47.977Z,27.70
2022-11-20T07:11:14.400Z,29.08
2022-11-20T07:13:40.781Z,28.70
2022-11-20T07:16:09.174Z,28.08
2022-11-20T07:18:37.046Z,27.33
2022-11-20T07:21:06.003Z,27.27
2022-11-20T07:23:32.579Z,26.92
2022-11-20T07:26:02.986Z,26.90
2022-11-20T07:28:29.349Z,27.10
2022-11-20T07:30:55.771Z,26.80
2022-11-20T07:33:22.187Z,27.83
2022-11-20T07:35:48.722Z,26.85
2022-11-20T07:38:15.159Z,29.05
2022-11-20T07:40:41.568Z,26.17
2022-11-20T07:43:07.990Z,26.73
2022-11-20T07:45:34.387Z,28.42
2022-11-20T07:48:01.018Z,28.73
2022-11-20T07:50:27.460Z,28.65
2022-11-20T07:53:01.395Z,28.35
2022-11-20T07:55:27.785Z,26.77
2022-11-20T07:58:00.323Z,30.33
2022-11-20T08:00:27.679Z,30.27
2022-11-20T08:02:54.384Z,27.88
2022-11-20T08:05:20.807Z,29.50
2022-11-20T08:07:47.293Z,30.58
2022-11-20T08:10:16.757Z,28.75
2022-11-20T08:13:06.730Z,28.80
2022-11-20T08:15:33.322Z,27.20
2022-11-20T08:18:29.502Z,27.80
2022-11-20T08:20:50.839Z,25.88
2022-11-20T08:23:17.191Z,24.65
2022-11-20T08:25:43.559Z,24.20
2022-11-20T08:28:20.194Z,25.13
2022-11-20T08:30:47.579Z,23.77
2022-11-20T08:33:14.059Z,24.75
2022-11-20T08:35:42.006Z,24.10
2022-11-20T08:38:10.205Z,22.52
2022-11-20T08:40:36.556Z,22.58
2022-11-20T08:43:02.927Z,22.45
2022-11-20T08:45:33.709Z,21.98
2022-11-20T08:48:04.775Z,23.83
2022-11-20T08:50:33.013Z,22.23
2022-11-20T08:53:06.864Z,22.95
2022-11-20T08:58:04.445Z,22.67
2022-11-20T09:00:30.818Z,22.15
2022-11-20T09:02:57.259Z,23.33
2022-11-20T09:05:23.631Z,23.98
2022-11-20T09:07:50.045Z,23.30
2022-11-20T09:10:25.028Z,23.77
2022-11-20T09:12:52.787Z,27.15
2022-11-20T09:15:20.415Z,24.65
2022-11-20T09:18:00.498Z,23.33
2022-11-20T09:20:32.229Z,21.48
2022-11-20T09:22:58.681Z,20.95
2022-11-20T09:25:25.472Z,20.83
2022-11-20T09:27:59.152Z,22.75
2022-11-20T09:30:26.203Z,21.60
2022-11-20T09:32:52.593Z,22.23
2022-11-20T09:35:19.041Z,22.25
2022-11-20T09:37:46.070Z,22.83
2022-11-20T09:40:22.500Z,21.90
2022-11-20T09:43:02.558Z,22.60
2022-11-20T09:45:42.780Z,22.15
2022-11-20T09:48:45.514Z,21.23
2022-11-20T09:51:15.018Z,21.63
2022-11-20T09:53:48.076Z,21.75
2022-11-20T09:56:18.281Z,20.75
2022-11-20T10:01:19.716Z,21.10
2022-11-20T10:04:01.712Z,21.73
2022-11-20T10:07:30.425Z,22.55
2022-11-20T10:09:52.239Z,20.13
2022-11-20T10:12:37.464Z,20.73
2022-11-20T10:15:29.887Z,22.25
2022-11-20T10:18:07.221Z,21.75
2022-11-20T10:20:44.217Z,21.23
2022-11-20T10:23:30.788Z,23.00
2022-11-20T10:26:23.060Z,22.83
2022-11-20T10:28:59.301Z,22.15
2022-11-20T10:31:35.703Z,22.15
2022-11-20T10:34:19.375Z,23.33
2022-11-20T10:36:57.512Z,22.05
2022-11-20T10:39:34.910Z,22.88
2022-11-20T10:42:01.843Z,22.38
2022-11-20T10:44:53.705Z,22.23
2022-11-20T10:47:22.895Z,22.08
2022-11-20T10:49:54.039Z,22.75
2022-11-20T10:52:52.222Z,23.42
2022-11-20T10:55:39.964Z,22.63
2022-11-20T10:58:27.110Z,22.67
2022-11-20T11:01:03.731Z,22.35
2022-11-20T11:03:32.095Z,22.98
2022-11-20T11:06:11.534Z,22.15
2022-11-20T11:08:42.232Z,23.13
2022-11-20T11:11:23.215Z,22.48
2022-11-20T11:13:50.056Z,22.42
2022-11-20T11:16:35.927Z,23.48
2022-11-20T11:19:14.238Z,22.15
2022-11-20T11:21:53.844Z,21.90
2022-11-20T11:24:41.556Z,22.00
2022-11-20T11:27:17.350Z,21.70
2022-11-20T11:29:44.658Z,21.90
2022-11-20T11:32:20.521Z,20.92
2022-11-20T11:34:59.860Z,21.88
2022-11-20T11:37:35.669Z,22.42
2022-11-20T11:40:23.508Z,22.13
2022-11-20T11:43:02.031Z,21.15
2022-11-20T11:45:29.426Z,21.83
2022-11-20T11:47:59.080Z,20.98
2022-11-20T11:50:27.467Z,21.60
2022-11-20T11:53:19.005Z,21.88
2022-11-20T11:56:10.835Z,21.50
2022-11-20T11:58:51.168Z,22.02
2022-11-20T12:01:26.979Z,20.23
2022-11-20T12:04:08.605Z,21.17
2022-11-20T12:06:39.327Z,21.63
2022-11-20T12:09:09.935Z,20.98
2022-11-20T12:11:46.278Z,20.98
2022-11-20T12:14:24.840Z,20.50
2022-11-20T12:16:53.637Z,20.33
2022-11-20T12:19:20.108Z,20.40
2022-11-20T12:21:58.470Z,20.13
2022-11-20T12:24:43.551Z,20.52
2022-11-20T12:27:37.427Z,19.73
2022-11-20T12:30:09.746Z,19.42
2022-11-20T12:32:42.584Z,19.10
2022-11-20T12:35:18.767Z,18.97
2022-11-20T12:37:53.490Z,17.70
2022-11-20T12:40:41.689Z,18.10
2022-11-20T12:43:35.785Z,16.60
2022-11-20T12:46:45.426Z,17.80
2022-11-20T12:49:38.973Z,17.85
2022-11-20T12:52:05.300Z,16.60
2022-11-20T12:54:50.798Z,17.83
2022-11-20T12:57:56.025Z,18.85
2022-11-20T13:00:24.626Z,17.63
2022-11-20T13:03:17.684Z,18.40
2022-11-20T13:06:12.132Z,19.20
2022-11-20T13:08:44.384Z,17.55
2022-11-20T13:11:35.085Z,19.77
2022-11-20T13:14:11.502Z,21.20
2022-11-20T13:16:56.030Z,21.58
2022-11-20T13:19:22.817Z,21.08
2022-11-20T13:21:51.377Z,22.48
2022-11-20T13:24:21.322Z,21.58
2022-11-20T13:26:48.288Z,21.48
2022-11-20T13:29:21.170Z,19.38
2022-11-20T13:31:49.146Z,19.95
2022-11-20T13:34:28.068Z,20.80
2022-11-20T13:36:57.215Z,19.55
2022-11-20T13:39:28.805Z,21.55
2022-11-20T13:42:01.995Z,20.58
2022-11-20T13:44:34.109Z,21.70
2022-11-20T13:47:00.609Z,21.33
2022-11-20T13:49:32.975Z,20.65
2022-11-20T13:52:27.566Z,21.77
2022-11-20T13:55:03.018Z,20.80
2022-11-20T13:57:38.401Z,20.10
2022-11-20T14:00:13.118Z,21.23
2022-11-20T14:02:40.260Z,20.83
2022-11-20T14:05:14.264Z,20.83
2022-11-20T14:07:43.417Z,21.13
2022-11-20T14:10:31.779Z,21.60
2022-11-20T14:12:59.751Z,21.05
2022-11-20T14:15:32.569Z,22.42
2022-11-20T14:18:00.188Z,21.50
2022-11-20T14:20:30.404Z,21.98
2022-11-20T14:22:56.830Z,23.67
2022-11-20T14:25:31.901Z,22.52
2022-11-20T14:28:00.473Z,22.17
2022-11-20T14:30:47.776Z,23.88
2022-11-20T14:33:15.384Z,23.25
2022-11-20T14:35:47.552Z,23.58
2022-11-20T14:38:20.967Z,21.25
2022-11-20T14:43:28.169Z,23.65
2022-11-20T14:46:00.635Z,25.63
2022-11-20T14:48:39.300Z,29.20
2022-11-20T14:51:06.459Z,28.90
2022-11-20T14:53:32.839Z,26.23
2022-11-20T14:56:01.594Z,24.50
2022-11-20T14:58:30.793Z,23.15
2022-11-20T15:01:08.307Z,24.88
2022-11-20T15:03:36.847Z,23.42
2022-11-20T15:06:04.076Z,23.05
2022-11-20T15:08:30.682Z,23.08
2022-11-20T15:10:58.111Z,23.85
2022-11-20T15:13:32.277Z,21.65
2022-11-20T15:16:01.072Z,22.85
2022-11-20T15:18:33.955Z,23.13
2022-11-20T15:21:07.121Z,23.60
2022-11-20T15:23:33.512Z,24.17
2022-11-20T15:25:59.896Z,23.58
2022-11-20T15:28:35.146Z,22.75
2022-11-20T15:31:03.107Z,22.90
2022-11-20T15:33:29.655Z,23.88
2022-11-20T15:35:56.093Z,24.40
2022-11-20T15:38:22.495Z,24.88
2022-11-20T15:40:48.840Z,24.08
2022-11-20T15:43:15.658Z,26.15
2022-11-20T15:45:47.637Z,26.73
2022-11-20T15:48:20.741Z,27.42
2022-11-20T15:51:06.298Z,25.77
2022-11-20T15:53:32.878Z,25.80
2022-11-20T15:55:59.249Z,28.63
2022-11-20T15:58:25.667Z,28.60
2022-11-20T16:00:52.047Z,26.83
2022-11-20T16:03:18.869Z,28.98
2022-11-20T16:05:45.577Z,29.33
2022-11-20T16:08:12.205Z,28.67
2022-11-20T16:10:39.554Z,28.23
2022-11-20T16:13:32.691Z,27.92
2022-11-20T16:16:02.235Z,25.80
2022-11-20T16:18:28.646Z,28.45
2022-11-20T16:20:55.723Z,28.23
2022-11-20T16:23:22.831Z,30.00
2022-11-20T16:25:50.213Z,28.52
2022-11-20T16:28:19.336Z,29.38
2022-11-20T16:30:46.652Z,29.08
2022-11-20T16:33:18.103Z,28.67
2022-11-20T16:35:44.964Z,25.00
2022-11-20T16:38:11.387Z,27.13
2022-11-20T16:40:37.767Z,26.88
2022-11-20T16:43:13.843Z,28.85
2022-11-20T16:45:42.510Z,32.13
2022-11-20T16:48:12.991Z,31.40
2022-11-20T16:50:45.699Z,30.00
2022-11-20T16:53:12.097Z,29.63
2022-11-20T16:55:38.489Z,30.05
2022-11-20T16:58:04.846Z,28.88
2022-11-20T17:00:31.259Z,28.88
2022-11-20T17:02:57.618Z,25.88
2022-11-20T17:05:23.991Z,25.55
2022-11-20T17:07:50.438Z,24.48
2022-11-20T17:10:16.825Z,26.58
2022-11-20T17:12:44.735Z,26.33
2022-11-20T17:15:11.260Z,24.52
2022-11-20T17:17:37.841Z,23.85
2022-11-20T17:20:04.718Z,22.65
2022-11-20T17:22:31.864Z,23.95
2022-11-20T17:24:58.462Z,25.73
2022-11-20T17:27:24.978Z,25.83
2022-11-20T17:29:51.385Z,25.42
2022-11-20T17:32:17.767Z,25.30
2022-11-20T17:34:44.149Z,23.20
2022-11-20T17:37:10.511Z,24.67
2022-11-20T17:39:36.901Z,24.73
2022-11-20T17:42:21.877Z,26.48
2022-11-20T17:44:48.398Z,25.15
2022-11-20T17:47:14.784Z,29.65
2022-11-20T17:49:41.206Z,24.30
2022-11-20T17:52:07.812Z,27.83
2022-11-20T17:54:34.269Z,25.00
2022-11-20T17:57:19.617Z,23.80
2022-11-20T17:59:46.010Z,25.10
2022-11-20T18:02:12.386Z,21.38
2022-11-20T18:04:38.779Z,21.73
2022-11-20T18:07:05.214Z,20.50
2022-11-20T18:09:31.703Z,19.10
2022-11-20T18:11:58.071Z,20.50
2022-11-20T18:14:34.497Z,18.55
2022-11-20T18:17:10.325Z,18.55
2022-11-20T18:19:47.756Z,18.00
2022-11-20T18:22:22.681Z,18.13
2022-11-20T18:24:49.365Z,16.60
2022-11-20T18:27:18.276Z,17.60
2022-11-20T18:29:46.416Z,16.38
2022-11-20T18:32:12.812Z,17.77
2022-11-20T18:34:39.203Z,18.08
2022-11-20T18:37:05.745Z,19.40
2022-11-20T18:39:32.153Z,19.90
2022-11-20T18:42:17.190Z,17.77
2022-11-20T18:44:53.692Z,15.95
2022-11-20T18:47:24.445Z,14.20
2022-11-20T18:49:53.354Z,13.65
2022-11-20T18:52:30.067Z,14.02
2022-11-20T18:54:56.728Z,12.90
2022-11-20T18:57:25.650Z,13.38
2022-11-20T18:59:53.731Z,12.88
2022-11-20T19:02:20.864Z,14.35
2022-11-20T19:04:47.556Z,13.70
2022-11-20T19:07:15.021Z,16.23
2022-11-20T19:09:43.546Z,14.23
2022-11-20T19:12:11.833Z,14.02
2022-11-20T19:14:38.527Z,13.80
2022-11-20T19:17:06.636Z,15.15
2022-11-20T19:19:34.083Z,14.45
2022-11-20T19:22:00.486Z,15.00
2022-11-20T19:24:28.273Z,13.35
2022-11-20T19:26:56.002Z,13.50
2022-11-20T19:29:23.993Z,13.18
2022-11-20T19:31:50.770Z,13.20
2022-11-20T19:34:17.224Z,14.00
2022-11-20T19:36:45.068Z,14.80
2022-11-20T19:39:12.303Z,15.40
2022-11-20T19:41:40.715Z,15.88
2022-11-20T19:44:10.176Z,16.52
2022-11-20T19:46:37.893Z,17.27
2022-11-20T19:49:06.539Z,17.20
2022-11-20T19:51:35.047Z,18.60
2022-11-20T19:54:02.658Z,19.27
2022-11-20T19:56:30.764Z,19.27
2022-11-20T19:58:57.728Z,21.00
2022-11-20T20:01:26.805Z,19.38
2022-11-20T20:03:54.021Z,18.10
2022-11-20T20:06:25.865Z,19.63
2022-11-20T20:08:57.501Z,18.77
2022-11-20T20:11:28.039Z,19.40
2022-11-20T20:13:55.922Z,18.42
2022-11-20T20:16:26.248Z,20.25
2022-11-20T20:19:01.640Z,19.40
2022-11-20T20:21:30.311Z,20.00
2022-11-20T20:23:57.816Z,18.98
2022-11-20T20:26:25.605Z,18.48
2022-11-20T20:28:52.027Z,19.92
2022-11-20T20:31:21.460Z,19.45
2022-11-20T20:33:48.109Z,19.17
2022-11-20T20:36:16.841Z,18.50
2022-11-20T20:38:44.455Z,17.55
2022-11-20T20:41:10.896Z,17.17
2022-11-20T20:43:56.341Z,17.50
2022-11-20T20:46:24.278Z,17.10
2022-11-20T20:48:54.331Z,16.05
2022-11-20T20:51:23.735Z,14.82
2022-11-20T20:53:50.301Z,15.55
2022-11-20T20:56:17.666Z,16.42
2022-11-20T20:58:44.147Z,15.60
2022-11-20T21:01:16.238Z,17.85
2022-11-20T21:03:42.755Z,16.88
2022-11-20T21:06:10.915Z,18.00
2022-11-20T21:08:40.818Z,16.92
2022-11-20T21:11:10.960Z,16.73
2022-11-20T21:13:38.669Z,18.33
2022-11-20T21:16:05.703Z,17.73
2022-11-20T21:18:32.768Z,17.17
2022-11-20T21:21:18.126Z,19.20
2022-11-20T21:23:47.828Z,19.20
2022-11-20T21:26:15.967Z,20.17
2022-11-20T21:28:42.641Z,19.83
2022-11-20T21:31:24.788Z,19.42
2022-11-20T21:33:53.448Z,20.50
2022-11-20T21:36:22.016Z,20.63
2022-11-20T21:38:50.325Z,20.35
2022-11-20T21:41:16.811Z,21.85
2022-11-20T21:43:44.142Z,22.70
2022-11-20T21:46:12.846Z,23.50
2022-11-20T21:48:40.642Z,22.35
2022-11-20T21:51:15.711Z,22.63
2022-11-20T21:53:43.779Z,22.25
2022-11-20T21:56:15.232Z,23.90
2022-11-20T21:58:45.212Z,25.50
2022-11-20T22:01:12.992Z,25.42
2022-11-20T22:03:40.014Z,26.73
2022-11-20T22:06:08.572Z,23.67
2022-11-20T22:08:36.387Z,25.55
2022-11-20T22:11:06.747Z,25.50
2022-11-20T22:13:51.883Z,24.20
2022-11-20T22:16:18.703Z,25.52
2022-11-20T22:18:47.220Z,22.75
2022-11-20T22:21:15.081Z,25.65
2022-11-20T22:23:41.791Z,24.17
2022-11-20T22:26:11.499Z,23.75
2022-11-20T22:28:39.095Z,23.35
2022-11-20T22:31:07.945Z,21.92
2022-11-20T22:33:35.735Z,22.60
2022-11-20T22:36:06.882Z,22.92
2022-11-20T22:38:39.134Z,21.35
2022-11-20T22:41:14.330Z,22.00
2022-11-20T22:43:43.755Z,21.88
2022-11-20T22:46:13.054Z,22.77
2022-11-20T22:48:41.815Z,22.65
2022-11-20T22:51:13.547Z,22.67
2022-11-20T22:53:41.513Z,24.30
2022-11-20T22:56:10.455Z,24.30
2022-11-20T22:58:38.091Z,25.42
2022-11-20T23:01:23.336Z,23.58
2022-11-20T23:03:56.311Z,26.13
2022-11-20T23:06:23.323Z,25.40
2022-11-20T23:08:50.457Z,26.02
2022-11-20T23:11:24.960Z,24.10
2022-11-20T23:13:59.681Z,24.13
2022-11-20T23:16:28.162Z,24.98
2022-11-20T23:18:56.665Z,24.08
2022-11-20T23:21:23.773Z,24.60
2022-11-20T23:23:52.516Z,21.98
2022-11-20T23:26:21.077Z,22.13
2022-11-20T23:28:47.548Z,22.95
2022-11-20T23:31:15.354Z,23.92
2022-11-20T23:33:43.586Z,24.50
2022-11-20T23:36:10.848Z,24.70
2022-11-20T23:38:38.082Z,25.02
2022-11-20T23:41:04.807Z,24.65
2022-11-20T23:43:31.991Z,24.08
2022-11-20T23:45:59.920Z,23.77
2022-11-20T23:48:28.598Z,24.25
2022-11-20T23:50:55.261Z,23.58
2022-11-20T23:53:22.677Z,23.13
2022-11-20T23:55:51.159Z,23.67
2022-11-20T23:58:18.157Z,23.40
